sensor_id;sensor_type;location;lat;lon;timestamp;pressure;altitude;pressure_sealevel;temperature;humidity
75166;BME280;63747;48.042;10.088;2024-03-02T00:00:08;94082.09;;;3.16;75.14
75166;BME280;63747;48.042;10.088;2024-03-02T00:03:11;94076.84;;;3.16;75.20
75166;BME280;63747;48.042;10.088;2024-03-02T00:06:14;94083.22;;;3.14;75.30
75166;BME280;63747;48.042;10.088;2024-03-02T00:09:15;94075.22;;;3.15;75.44
75166;BME280;63747;48.042;10.088;2024-03-02T00:12:16;94086.19;;;3.19;75.27
75166;BME280;63747;48.042;10.088;2024-03-02T00:18:39;94080.44;;;3.15;75.53
75166;BME280;63747;48.042;10.088;2024-03-02T00:21:40;94072.44;;;3.17;75.47
75166;BME280;63747;48.042;10.088;2024-03-02T00:24:41;94071.63;;;3.16;75.35
75166;BME280;63747;48.042;10.088;2024-03-02T00:27:41;94076.34;;;3.13;75.51
75166;BME280;63747;48.042;10.088;2024-03-02T00:33:54;94081.78;;;3.19;75.45
75166;BME280;63747;48.042;10.088;2024-03-02T00:36:57;94074.56;;;3.13;75.67
75166;BME280;63747;48.042;10.088;2024-03-02T00:40:00;94083.06;;;3.15;75.75
75166;BME280;63747;48.042;10.088;2024-03-02T00:43:01;94078.66;;;3.16;75.72
75166;BME280;63747;48.042;10.088;2024-03-02T00:46:03;94081.09;;;3.17;75.51
75166;BME280;63747;48.042;10.088;2024-03-02T00:49:05;94081.78;;;3.19;75.62
75166;BME280;63747;48.042;10.088;2024-03-02T00:52:12;94080.94;;;3.19;75.49
75166;BME280;63747;48.042;10.088;2024-03-02T00:55:14;94086.19;;;3.19;75.46
75166;BME280;63747;48.042;10.088;2024-03-02T00:58:14;94087.84;;;3.20;75.50
75166;BME280;63747;48.042;10.088;2024-03-02T01:01:15;94079.31;;;3.18;75.35
75166;BME280;63747;48.042;10.088;2024-03-02T01:04:16;94084.34;;;3.11;75.23
75166;BME280;63747;48.042;10.088;2024-03-02T01:07:17;94088.44;;;3.06;75.58
75166;BME280;63747;48.042;10.088;2024-03-02T01:10:17;94083.66;;;3.01;75.49
75166;BME280;63747;48.042;10.088;2024-03-02T01:13:18;94087.25;;;3.00;75.56
75166;BME280;63747;48.042;10.088;2024-03-02T01:16:19;94081.84;;;3.02;75.45
75166;BME280;63747;48.042;10.088;2024-03-02T01:19:20;94078.91;;;3.05;75.36
75166;BME280;63747;48.042;10.088;2024-03-02T01:22:21;94078.09;;;3.04;75.32
75166;BME280;63747;48.042;10.088;2024-03-02T01:25:25;94085.81;;;3.06;75.26
75166;BME280;63747;48.042;10.088;2024-03-02T01:28:26;94078.91;;;3.05;75.28
75166;BME280;63747;48.042;10.088;2024-03-02T01:31:26;94076.25;;;2.96;75.57
75166;BME280;63747;48.042;10.088;2024-03-02T01:34:27;94070.41;;;3.03;75.35
75166;BME280;63747;48.042;10.088;2024-03-02T01:37:28;94076.00;;;3.08;75.44
75166;BME280;63747;48.042;10.088;2024-03-02T01:40:28;94073.38;;;3.08;75.38
75166;BME280;63747;48.042;10.088;2024-03-02T01:43:29;94071.06;;;3.05;75.34
75166;BME280;63747;48.042;10.088;2024-03-02T01:46:30;94071.38;;;3.02;75.43
75166;BME280;63747;48.042;10.088;2024-03-02T01:49:31;94082.00;;;3.00;75.26
75166;BME280;63747;48.042;10.088;2024-03-02T01:52:33;94082.59;;;2.86;75.55
75166;BME280;63747;48.042;10.088;2024-03-02T01:55:33;94090.63;;;2.92;75.69
75166;BME280;63747;48.042;10.088;2024-03-02T01:58:34;94095.50;;;2.87;75.61
75166;BME280;63747;48.042;10.088;2024-03-02T02:01:36;94086.59;;;2.72;75.69
75166;BME280;63747;48.042;10.088;2024-03-02T02:04:36;94091.13;;;2.70;75.98
75166;BME280;63747;48.042;10.088;2024-03-02T02:07:37;94098.53;;;2.75;76.14
75166;BME280;63747;48.042;10.088;2024-03-02T02:10:38;94105.19;;;2.69;76.05
75166;BME280;63747;48.042;10.088;2024-03-02T02:13:39;94099.25;;;2.59;76.18
75166;BME280;63747;48.042;10.088;2024-03-02T02:16:39;94092.22;;;2.59;76.31
75166;BME280;63747;48.042;10.088;2024-03-02T02:19:41;94089.00;;;2.65;76.22
75166;BME280;63747;48.042;10.088;2024-03-02T02:22:52;94101.59;;;2.70;76.06
75166;BME280;63747;48.042;10.088;2024-03-02T02:25:53;94095.38;;;2.71;76.01
75166;BME280;63747;48.042;10.088;2024-03-02T02:28:53;94102.72;;;2.67;75.91
75166;BME280;63747;48.042;10.088;2024-03-02T02:31:54;94093.25;;;2.66;76.14
75166;BME280;63747;48.042;10.088;2024-03-02T02:34:54;94096.97;;;2.64;76.22
75166;BME280;63747;48.042;10.088;2024-03-02T02:37:56;94089.50;;;2.69;76.24
75166;BME280;63747;48.042;10.088;2024-03-02T02:40:58;94094.78;;;2.77;76.48
75166;BME280;63747;48.042;10.088;2024-03-02T02:43:59;94085.50;;;2.83;76.39
75166;BME280;63747;48.042;10.088;2024-03-02T02:47:00;94085.03;;;2.87;76.18
75166;BME280;63747;48.042;10.088;2024-03-02T02:50:02;94085.41;;;2.92;76.08
75166;BME280;63747;48.042;10.088;2024-03-02T02:53:03;94090.31;;;2.95;76.06
75166;BME280;63747;48.042;10.088;2024-03-02T02:56:04;94085.09;;;2.95;76.13
75166;BME280;63747;48.042;10.088;2024-03-02T02:59:04;94085.09;;;2.95;75.96
75166;BME280;63747;48.042;10.088;2024-03-02T03:02:05;94088.53;;;2.96;76.08
75166;BME280;63747;48.042;10.088;2024-03-02T03:05:07;94091.97;;;2.96;75.83
75166;BME280;63747;48.042;10.088;2024-03-02T03:08:08;94091.97;;;2.96;75.85
75166;BME280;63747;48.042;10.088;2024-03-02T03:11:08;94090.34;;;3.04;75.79
75166;BME280;63747;48.042;10.088;2024-03-02T03:14:09;94097.22;;;3.05;75.63
75166;BME280;63747;48.042;10.088;2024-03-02T03:17:10;94096.28;;;3.06;75.83
75166;BME280;63747;48.042;10.088;2024-03-02T03:20:10;94095.97;;;3.09;75.56
75166;BME280;63747;48.042;10.088;2024-03-02T03:23:11;94102.00;;;3.09;75.57
75166;BME280;63747;48.042;10.088;2024-03-02T03:26:15;94093.31;;;3.01;75.58
75166;BME280;63747;48.042;10.088;2024-03-02T03:29:16;94087.66;;;2.87;75.87
75166;BME280;63747;48.042;10.088;2024-03-02T03:32:16;94091.53;;;2.83;76.25
75166;BME280;63747;48.042;10.088;2024-03-02T03:35:17;94095.88;;;2.92;75.77
75166;BME280;63747;48.042;10.088;2024-03-02T03:38:18;94098.63;;;2.91;75.82
75166;BME280;63747;48.042;10.088;2024-03-02T03:41:19;94101.09;;;2.92;75.64
75166;BME280;63747;48.042;10.088;2024-03-02T03:44:20;94103.03;;;2.90;75.50
75166;BME280;63747;48.042;10.088;2024-03-02T03:47:20;94104.00;;;2.89;75.50
75166;BME280;63747;48.042;10.088;2024-03-02T03:50:21;94103.19;;;2.89;75.51
75166;BME280;63747;48.042;10.088;2024-03-02T03:53:22;94100.91;;;2.86;75.24
75166;BME280;63747;48.042;10.088;2024-03-02T03:56:24;94100.38;;;2.82;75.53
75166;BME280;63747;48.042;10.088;2024-03-02T03:59:25;94103.97;;;2.81;75.54
75166;BME280;63747;48.042;10.088;2024-03-02T04:02:25;94108.38;;;2.81;75.46
75166;BME280;63747;48.042;10.088;2024-03-02T04:05:26;94108.66;;;2.78;75.47
75166;BME280;63747;48.042;10.088;2024-03-02T04:08:27;94113.41;;;2.74;75.65
75166;BME280;63747;48.042;10.088;2024-03-02T04:11:28;94109.44;;;2.70;75.57
75166;BME280;63747;48.042;10.088;2024-03-02T04:14:28;94117.00;;;2.73;75.68
75166;BME280;63747;48.042;10.088;2024-03-02T04:17:31;94107.13;;;2.67;75.55
75166;BME280;63747;48.042;10.088;2024-03-02T04:20:32;94110.75;;;2.66;75.54
75166;BME280;63747;48.042;10.088;2024-03-02T04:23:33;94105.50;;;2.66;75.75
75166;BME280;63747;48.042;10.088;2024-03-02T04:26:33;94105.41;;;2.58;75.76
75166;BME280;63747;48.042;10.088;2024-03-02T04:29:34;94115.22;;;2.56;75.84
75166;BME280;63747;48.042;10.088;2024-03-02T04:32:35;94111.94;;;2.54;75.89
75166;BME280;63747;48.042;10.088;2024-03-02T04:35:37;94108.03;;;2.58;75.83
75166;BME280;63747;48.042;10.088;2024-03-02T04:38:38;94101.84;;;2.59;76.05
75166;BME280;63747;48.042;10.088;2024-03-02T04:41:39;94103.34;;;2.61;76.13
75166;BME280;63747;48.042;10.088;2024-03-02T04:44:39;94107.22;;;2.57;75.79
75166;BME280;63747;48.042;10.088;2024-03-02T04:47:40;94115.81;;;2.50;76.02
75166;BME280;63747;48.042;10.088;2024-03-02T04:50:41;94113.03;;;2.51;76.20
75166;BME280;63747;48.042;10.088;2024-03-02T04:53:41;94113.75;;;2.53;76.14
75166;BME280;63747;48.042;10.088;2024-03-02T04:56:42;94121.44;;;2.55;76.19
75166;BME280;63747;48.042;10.088;2024-03-02T04:59:49;94110.44;;;2.51;76.09
75166;BME280;63747;48.042;10.088;2024-03-02T05:02:50;94125.84;;;2.54;76.08
75166;BME280;63747;48.042;10.088;2024-03-02T05:05:51;94123.22;;;2.54;75.83
75166;BME280;63747;48.042;10.088;2024-03-02T05:08:51;94131.50;;;2.50;75.97
75166;BME280;63747;48.042;10.088;2024-03-02T05:11:52;94121.97;;;2.40;76.09
75166;BME280;63747;48.042;10.088;2024-03-02T05:15:13;94119.03;;;2.43;76.23
75166;BME280;63747;48.042;10.088;2024-03-02T05:18:14;94120.56;;;2.46;76.27
75166;BME280;63747;48.042;10.088;2024-03-02T05:21:15;94110.69;;;2.40;76.33
75166;BME280;63747;48.042;10.088;2024-03-02T05:24:15;94115.59;;;2.43;76.29
75166;BME280;63747;48.042;10.088;2024-03-02T05:27:16;94114.78;;;2.42;76.25
75166;BME280;63747;48.042;10.088;2024-03-02T05:30:17;94122.63;;;2.42;76.31
75166;BME280;63747;48.042;10.088;2024-03-02T05:33:18;94116.72;;;2.40;76.30
75166;BME280;63747;48.042;10.088;2024-03-02T05:36:19;94112.63;;;2.38;76.63
75166;BME280;63747;48.042;10.088;2024-03-02T05:39:20;94113.59;;;2.37;76.52
75166;BME280;63747;48.042;10.088;2024-03-02T05:42:21;94112.91;;;2.35;76.66
75166;BME280;63747;48.042;10.088;2024-03-02T05:45:22;94111.78;;;2.37;76.69
75166;BME280;63747;48.042;10.088;2024-03-02T05:48:22;94118.69;;;2.38;76.53
75166;BME280;63747;48.042;10.088;2024-03-02T05:51:23;94118.69;;;2.38;76.43
75166;BME280;63747;48.042;10.088;2024-03-02T05:54:24;94120.59;;;2.36;76.52
75166;BME280;63747;48.042;10.088;2024-03-02T05:57:25;94125.03;;;2.36;76.23
75166;BME280;63747;48.042;10.088;2024-03-02T06:00:41;94125.50;;;2.31;76.21
75166;BME280;63747;48.042;10.088;2024-03-02T06:03:41;94129.38;;;2.27;76.28
75166;BME280;63747;48.042;10.088;2024-03-02T06:06:42;94125.38;;;2.23;76.28
75166;BME280;63747;48.042;10.088;2024-03-02T06:09:43;94130.19;;;2.28;76.54
75166;BME280;63747;48.042;10.088;2024-03-02T06:12:44;94131.31;;;2.25;76.51
75166;BME280;63747;48.042;10.088;2024-03-02T06:15:45;94124.56;;;2.23;76.35
75166;BME280;63747;48.042;10.088;2024-03-02T06:18:46;94130.50;;;2.25;76.49
75166;BME280;63747;48.042;10.088;2024-03-02T06:21:47;94131.16;;;2.27;76.44
75166;BME280;63747;48.042;10.088;2024-03-02T06:24:47;94135.25;;;2.29;76.43
75166;BME280;63747;48.042;10.088;2024-03-02T06:27:48;94137.44;;;2.34;76.21
75166;BME280;63747;48.042;10.088;2024-03-02T06:30:49;94133.56;;;2.38;76.36
75166;BME280;63747;48.042;10.088;2024-03-02T06:33:50;94139.28;;;2.41;76.10
75166;BME280;63747;48.042;10.088;2024-03-02T06:36:50;94144.25;;;2.45;76.27
75166;BME280;63747;48.042;10.088;2024-03-02T06:39:51;94139.19;;;2.51;76.30
75166;BME280;63747;48.042;10.088;2024-03-02T06:42:52;94141.38;;;2.56;76.18
75166;BME280;63747;48.042;10.088;2024-03-02T06:45:52;94141.38;;;2.56;76.20
75166;BME280;63747;48.042;10.088;2024-03-02T06:48:53;94134.19;;;2.58;76.39
75166;BME280;63747;48.042;10.088;2024-03-02T06:51:54;94143.09;;;2.65;76.22
75166;BME280;63747;48.042;10.088;2024-03-02T06:54:54;94143.78;;;2.67;76.29
75166;BME280;63747;48.042;10.088;2024-03-02T06:57:55;94148.41;;;2.73;76.28
75166;BME280;63747;48.042;10.088;2024-03-02T07:00:56;94141.75;;;2.79;76.24
75166;BME280;63747;48.042;10.088;2024-03-02T07:03:56;94142.91;;;2.84;76.26
75166;BME280;63747;48.042;10.088;2024-03-02T07:06:57;94144.09;;;2.90;76.27
75166;BME280;63747;48.042;10.088;2024-03-02T07:09:58;94143.31;;;2.97;76.27
75166;BME280;63747;48.042;10.088;2024-03-02T07:12:58;94142.06;;;3.02;76.28
75166;BME280;63747;48.042;10.088;2024-03-02T07:15:59;94145.34;;;3.04;76.45
75166;BME280;63747;48.042;10.088;2024-03-02T07:19:02;94143.75;;;3.11;76.31
75166;BME280;63747;48.042;10.088;2024-03-02T07:22:06;94141.81;;;3.13;76.27
75166;BME280;63747;48.042;10.088;2024-03-02T07:25:07;94138.53;;;3.19;76.20
75166;BME280;63747;48.042;10.088;2024-03-02T07:28:08;94140.09;;;3.30;76.36
75166;BME280;63747;48.042;10.088;2024-03-02T07:31:09;94140.00;;;3.39;76.42
75166;BME280;63747;48.042;10.088;2024-03-02T07:34:10;94137.94;;;3.51;76.24
75166;BME280;63747;48.042;10.088;2024-03-02T07:37:10;94134.53;;;3.59;76.31
75166;BME280;63747;48.042;10.088;2024-03-02T07:40:11;94138.50;;;3.63;76.01
75166;BME280;63747;48.042;10.088;2024-03-02T07:43:12;94137.22;;;3.67;75.97
75166;BME280;63747;48.042;10.088;2024-03-02T07:46:13;94140.16;;;3.72;76.02
75166;BME280;63747;48.042;10.088;2024-03-02T07:49:13;94139.84;;;3.75;76.11
75166;BME280;63747;48.042;10.088;2024-03-02T07:52:14;94141.34;;;3.86;76.09
75166;BME280;63747;48.042;10.088;2024-03-02T07:55:15;94138.63;;;3.95;76.04
75166;BME280;63747;48.042;10.088;2024-03-02T07:58:16;94137.34;;;4.07;75.82
75166;BME280;63747;48.042;10.088;2024-03-02T08:01:19;94145.25;;;4.24;76.08
75166;BME280;63747;48.042;10.088;2024-03-02T08:04:22;94142.47;;;4.33;75.79
75166;BME280;63747;48.042;10.088;2024-03-02T08:07:23;94139.72;;;4.43;75.87
75166;BME280;63747;48.042;10.088;2024-03-02T08:10:24;94138.25;;;4.49;75.84
75166;BME280;63747;48.042;10.088;2024-03-02T08:13:25;94145.47;;;4.63;75.82
75166;BME280;63747;48.042;10.088;2024-03-02T08:16:26;94148.44;;;4.76;75.79
75166;BME280;63747;48.042;10.088;2024-03-02T08:19:27;94140.56;;;4.84;75.38
75166;BME280;63747;48.042;10.088;2024-03-02T08:22:27;94144.47;;;5.05;75.43
75166;BME280;63747;48.042;10.088;2024-03-02T08:25:28;94144.63;;;5.20;75.15
75166;BME280;63747;48.042;10.088;2024-03-02T08:28:29;94150.81;;;5.35;74.97
75166;BME280;63747;48.042;10.088;2024-03-02T08:31:30;94149.03;;;5.43;74.86
75166;BME280;63747;48.042;10.088;2024-03-02T08:34:31;94151.63;;;5.52;74.89
75166;BME280;63747;48.042;10.088;2024-03-02T08:37:31;94135.03;;;5.51;74.68
75166;BME280;63747;48.042;10.088;2024-03-02T08:40:32;94135.81;;;5.60;74.62
75166;BME280;63747;48.042;10.088;2024-03-02T08:43:33;94136.59;;;5.68;74.30
75166;BME280;63747;48.042;10.088;2024-03-02T08:46:35;94133.13;;;5.84;74.18
75166;BME280;63747;48.042;10.088;2024-03-02T08:49:36;94137.16;;;6.03;73.80
75166;BME280;63747;48.042;10.088;2024-03-02T08:52:37;94133.50;;;6.12;73.49
75166;BME280;63747;48.042;10.088;2024-03-02T08:55:37;94140.41;;;6.13;73.50
75166;BME280;63747;48.042;10.088;2024-03-02T08:58:38;94130.81;;;6.20;73.42
75166;BME280;63747;48.042;10.088;2024-03-02T09:01:40;94131.09;;;6.34;73.35
75166;BME280;63747;48.042;10.088;2024-03-02T09:04:41;94134.16;;;6.45;72.85
75166;BME280;63747;48.042;10.088;2024-03-02T09:07:42;94132.91;;;6.56;72.56
75166;BME280;63747;48.042;10.088;2024-03-02T09:10:43;94132.44;;;6.75;72.43
75166;BME280;63747;48.042;10.088;2024-03-02T09:13:43;94134.44;;;7.11;72.24
75166;BME280;63747;48.042;10.088;2024-03-02T09:16:44;94134.50;;;7.41;71.78
75166;BME280;63747;48.042;10.088;2024-03-02T09:19:45;94128.00;;;7.66;71.29
75166;BME280;63747;48.042;10.088;2024-03-02T09:22:46;94126.41;;;7.72;70.46
75166;BME280;63747;48.042;10.088;2024-03-02T09:25:48;94123.75;;;7.80;70.32
75166;BME280;63747;48.042;10.088;2024-03-02T09:28:49;94113.44;;;7.85;70.21
75166;BME280;63747;48.042;10.088;2024-03-02T09:31:49;94122.91;;;7.94;70.14
75166;BME280;63747;48.042;10.088;2024-03-02T09:34:50;94125.25;;;8.04;69.80
75166;BME280;63747;48.042;10.088;2024-03-02T09:37:53;94111.59;;;8.15;69.42
75166;BME280;63747;48.042;10.088;2024-03-02T09:40:54;94106.81;;;8.25;69.26
75166;BME280;63747;48.042;10.088;2024-03-02T09:43:55;94103.09;;;8.34;69.11
75166;BME280;63747;48.042;10.088;2024-03-02T09:46:56;94103.16;;;8.41;68.52
75166;BME280;63747;48.042;10.088;2024-03-02T09:49:56;94098.63;;;8.56;68.45
75166;BME280;63747;48.042;10.088;2024-03-02T09:52:58;94102.69;;;8.80;68.27
75166;BME280;63747;48.042;10.088;2024-03-02T09:56:00;94096.59;;;9.01;67.47
75166;BME280;63747;48.042;10.088;2024-03-02T09:59:01;94096.38;;;9.24;67.45
75166;BME280;63747;48.042;10.088;2024-03-02T10:02:02;94105.09;;;9.46;66.29
75166;BME280;63747;48.042;10.088;2024-03-02T10:05:03;94094.63;;;9.66;65.96
75166;BME280;63747;48.042;10.088;2024-03-02T10:08:04;94089.59;;;9.71;65.57
75166;BME280;63747;48.042;10.088;2024-03-02T10:11:06;94092.72;;;9.88;65.63
75166;BME280;63747;48.042;10.088;2024-03-02T10:14:11;94083.69;;;10.17;64.37
75166;BME280;63747;48.042;10.088;2024-03-02T10:17:13;94079.06;;;10.39;63.82
75166;BME280;63747;48.042;10.088;2024-03-02T10:20:22;94064.81;;;10.40;62.98
75166;BME280;63747;48.042;10.088;2024-03-02T10:23:26;94065.22;;;10.56;62.79
75166;BME280;63747;48.042;10.088;2024-03-02T10:26:28;94053.88;;;10.76;62.49
75166;BME280;63747;48.042;10.088;2024-03-02T10:29:29;94062.84;;;10.81;61.99
75166;BME280;63747;48.042;10.088;2024-03-02T10:32:31;94061.63;;;10.84;61.88
75166;BME280;63747;48.042;10.088;2024-03-02T10:35:32;94057.97;;;10.92;61.76
75166;BME280;63747;48.042;10.088;2024-03-02T10:38:36;94061.25;;;10.94;60.99
75166;BME280;63747;48.042;10.088;2024-03-02T10:41:38;94059.63;;;10.93;61.06
75166;BME280;63747;48.042;10.088;2024-03-02T10:44:39;94054.50;;;10.91;59.93
75166;BME280;63747;48.042;10.088;2024-03-02T10:47:41;94050.44;;;11.02;60.22
75166;BME280;63747;48.042;10.088;2024-03-02T10:50:43;94046.97;;;11.08;59.93
75166;BME280;63747;48.042;10.088;2024-03-02T10:53:43;94039.41;;;11.11;59.89
75166;BME280;63747;48.042;10.088;2024-03-02T10:56:46;94026.53;;;11.22;59.19
75166;BME280;63747;48.042;10.088;2024-03-02T10:59:52;94028.16;;;11.36;57.60
75166;BME280;63747;48.042;10.088;2024-03-02T11:02:57;94015.25;;;11.59;58.21
75166;BME280;63747;48.042;10.088;2024-03-02T11:05:59;94015.28;;;12.11;57.27
75166;BME280;63747;48.042;10.088;2024-03-02T11:09:07;94011.16;;;12.53;56.97
75166;BME280;63747;48.042;10.088;2024-03-02T11:12:30;93998.97;;;12.70;56.29
75166;BME280;63747;48.042;10.088;2024-03-02T11:15:34;93996.25;;;12.77;55.31
75166;BME280;63747;48.042;10.088;2024-03-02T11:18:37;93991.81;;;12.96;54.60
75166;BME280;63747;48.042;10.088;2024-03-02T11:21:38;93988.28;;;13.02;54.14
75166;BME280;63747;48.042;10.088;2024-03-02T11:24:48;93977.38;;;13.10;53.09
75166;BME280;63747;48.042;10.088;2024-03-02T11:27:59;93981.13;;;13.02;54.13
75166;BME280;63747;48.042;10.088;2024-03-02T11:31:00;93967.66;;;12.97;53.86
75166;BME280;63747;48.042;10.088;2024-03-02T11:34:17;93972.94;;;13.29;54.18
75166;BME280;63747;48.042;10.088;2024-03-02T11:37:19;93961.38;;;13.17;51.99
75166;BME280;63747;48.042;10.088;2024-03-02T11:40:27;93955.84;;;13.18;53.60
75166;BME280;63747;48.042;10.088;2024-03-02T11:43:29;93953.34;;;13.23;52.79
75166;BME280;63747;48.042;10.088;2024-03-02T11:46:30;93948.28;;;13.33;52.58
75166;BME280;63747;48.042;10.088;2024-03-02T11:49:44;93947.81;;;13.43;52.98
75166;BME280;63747;48.042;10.088;2024-03-02T11:52:46;93935.66;;;13.47;53.04
75166;BME280;63747;48.042;10.088;2024-03-02T11:55:47;93924.34;;;13.70;52.29
75166;BME280;63747;48.042;10.088;2024-03-02T11:58:53;93929.81;;;13.57;51.21
75166;BME280;63747;48.042;10.088;2024-03-02T12:01:54;93919.28;;;13.62;52.31
75166;BME280;63747;48.042;10.088;2024-03-02T12:04:55;93923.13;;;13.84;52.40
75166;BME280;63747;48.042;10.088;2024-03-02T12:07:58;93915.09;;;13.73;51.68
75166;BME280;63747;48.042;10.088;2024-03-02T12:11:01;93918.13;;;13.76;52.81
75166;BME280;63747;48.042;10.088;2024-03-02T12:14:02;93902.81;;;14.02;51.79
75166;BME280;63747;48.042;10.088;2024-03-02T12:17:05;93890.75;;;14.29;51.42
75166;BME280;63747;48.042;10.088;2024-03-02T12:20:06;93892.84;;;14.27;50.80
75166;BME280;63747;48.042;10.088;2024-03-02T12:23:07;93892.78;;;14.15;53.12
75166;BME280;63747;48.042;10.088;2024-03-02T12:26:08;93895.41;;;14.04;52.23
75166;BME280;63747;48.042;10.088;2024-03-02T12:29:09;93893.09;;;14.07;51.19
75166;BME280;63747;48.042;10.088;2024-03-02T12:32:10;93882.09;;;14.04;50.64
75166;BME280;63747;48.042;10.088;2024-03-02T12:35:11;93882.66;;;14.24;50.29
75166;BME280;63747;48.042;10.088;2024-03-02T12:38:15;93869.25;;;14.54;50.32
75166;BME280;63747;48.042;10.088;2024-03-02T12:41:16;93873.66;;;14.60;49.96
75166;BME280;63747;48.042;10.088;2024-03-02T12:44:17;93867.28;;;14.85;48.36
75166;BME280;63747;48.042;10.088;2024-03-02T12:47:18;93867.16;;;15.03;48.87
75166;BME280;63747;48.042;10.088;2024-03-02T12:50:20;93855.69;;;15.26;48.67
75166;BME280;63747;48.042;10.088;2024-03-02T12:53:21;93849.16;;;15.34;48.42
75166;BME280;63747;48.042;10.088;2024-03-02T12:56:22;93860.97;;;15.38;50.37
75166;BME280;63747;48.042;10.088;2024-03-02T12:59:24;93854.72;;;15.20;48.69
75166;BME280;63747;48.042;10.088;2024-03-02T13:02:30;93850.94;;;14.93;48.35
75166;BME280;63747;48.042;10.088;2024-03-02T13:05:32;93839.22;;;14.59;49.53
75166;BME280;63747;48.042;10.088;2024-03-02T13:08:33;93837.59;;;14.58;49.72
75166;BME280;63747;48.042;10.088;2024-03-02T13:11:35;93836.19;;;14.55;49.39
75166;BME280;63747;48.042;10.088;2024-03-02T13:14:37;93838.06;;;14.55;48.94
75166;BME280;63747;48.042;10.088;2024-03-02T13:17:38;93828.56;;;14.59;49.50
75166;BME280;63747;48.042;10.088;2024-03-02T13:20:39;93831.44;;;14.46;49.92
75166;BME280;63747;48.042;10.088;2024-03-02T13:23:40;93828.53;;;14.47;50.97
75166;BME280;63747;48.042;10.088;2024-03-02T13:26:41;93824.59;;;14.50;49.80
75166;BME280;63747;48.042;10.088;2024-03-02T13:29:42;93822.88;;;14.55;49.56
75166;BME280;63747;48.042;10.088;2024-03-02T13:32:43;93815.22;;;14.71;49.58
75166;BME280;63747;48.042;10.088;2024-03-02T13:35:43;93813.47;;;14.76;50.20
75166;BME280;63747;48.042;10.088;2024-03-02T13:38:44;93814.28;;;14.88;49.45
75166;BME280;63747;48.042;10.088;2024-03-02T13:41:45;93810.09;;;14.92;49.63
75166;BME280;63747;48.042;10.088;2024-03-02T13:44:52;93809.19;;;14.75;49.67
75166;BME280;63747;48.042;10.088;2024-03-02T13:47:53;93801.28;;;14.80;50.05
75166;BME280;63747;48.042;10.088;2024-03-02T13:50:54;93793.28;;;14.68;49.46
75166;BME280;63747;48.042;10.088;2024-03-02T13:53:55;93794.81;;;14.53;49.80
75166;BME280;63747;48.042;10.088;2024-03-02T13:56:56;93791.75;;;14.14;50.99
75166;BME280;63747;48.042;10.088;2024-03-02T14:00:00;93795.06;;;13.86;51.83
75166;BME280;63747;48.042;10.088;2024-03-02T14:03:02;93790.03;;;13.66;51.92
75166;BME280;63747;48.042;10.088;2024-03-02T14:06:03;93792.28;;;13.51;53.01
75166;BME280;63747;48.042;10.088;2024-03-02T14:09:04;93780.84;;;13.50;52.58
75166;BME280;63747;48.042;10.088;2024-03-02T14:12:05;93776.97;;;13.46;53.03
75166;BME280;63747;48.042;10.088;2024-03-02T14:15:07;93777.53;;;13.37;53.73
75166;BME280;63747;48.042;10.088;2024-03-02T14:18:07;93770.06;;;13.27;53.49
75166;BME280;63747;48.042;10.088;2024-03-02T14:21:11;93768.47;;;13.26;53.40
75166;BME280;63747;48.042;10.088;2024-03-02T14:24:13;93768.22;;;13.27;53.45
75166;BME280;63747;48.042;10.088;2024-03-02T14:27:13;93771.13;;;13.26;53.45
75166;BME280;63747;48.042;10.088;2024-03-02T14:30:14;93761.13;;;13.21;53.27
75166;BME280;63747;48.042;10.088;2024-03-02T14:33:15;93765.75;;;13.14;53.44
75166;BME280;63747;48.042;10.088;2024-03-02T14:36:16;93756.06;;;13.01;53.45
75166;BME280;63747;48.042;10.088;2024-03-02T14:39:17;93763.41;;;12.88;53.72
75166;BME280;63747;48.042;10.088;2024-03-02T14:42:19;93765.53;;;12.79;53.88
75166;BME280;63747;48.042;10.088;2024-03-02T14:45:20;93773.19;;;12.87;53.93
75166;BME280;63747;48.042;10.088;2024-03-02T14:48:21;93776.59;;;12.94;53.63
75166;BME280;63747;48.042;10.088;2024-03-02T14:51:22;93768.84;;;12.93;53.58
75166;BME280;63747;48.042;10.088;2024-03-02T14:54:22;93767.94;;;12.99;53.70
75166;BME280;63747;48.042;10.088;2024-03-02T14:57:23;93757.81;;;13.07;53.93
75166;BME280;63747;48.042;10.088;2024-03-02T15:00:24;93765.75;;;12.96;53.93
75166;BME280;63747;48.042;10.088;2024-03-02T15:03:25;93767.75;;;12.64;54.20
75166;BME280;63747;48.042;10.088;2024-03-02T15:06:26;93767.16;;;12.62;54.01
75166;BME280;63747;48.042;10.088;2024-03-02T15:09:27;93768.28;;;12.54;54.81
75166;BME280;63747;48.042;10.088;2024-03-02T15:12:27;93760.22;;;12.42;55.25
75166;BME280;63747;48.042;10.088;2024-03-02T15:15:28;93742.91;;;12.33;55.76
75166;BME280;63747;48.042;10.088;2024-03-02T15:18:29;93742.69;;;12.16;56.02
75166;BME280;63747;48.042;10.088;2024-03-02T15:21:30;93728.16;;;11.94;57.18
75166;BME280;63747;48.042;10.088;2024-03-02T15:24:31;93735.72;;;11.90;57.10
75166;BME280;63747;48.042;10.088;2024-03-02T15:27:32;93733.72;;;11.86;56.76
75166;BME280;63747;48.042;10.088;2024-03-02T15:30:32;93728.16;;;11.94;56.77
75166;BME280;63747;48.042;10.088;2024-03-02T15:33:33;93726.19;;;11.83;57.17
75166;BME280;63747;48.042;10.088;2024-03-02T15:36:34;93708.94;;;11.74;57.39
75166;BME280;63747;48.042;10.088;2024-03-02T15:39:35;93697.91;;;11.70;58.03
75166;BME280;63747;48.042;10.088;2024-03-02T15:42:36;93705.13;;;11.63;58.08
75166;BME280;63747;48.042;10.088;2024-03-02T15:45:36;93706.97;;;11.62;57.86
75166;BME280;63747;48.042;10.088;2024-03-02T15:48:37;93706.38;;;11.60;58.35
75166;BME280;63747;48.042;10.088;2024-03-02T15:51:38;93710.81;;;11.66;58.17
75166;BME280;63747;48.042;10.088;2024-03-02T15:54:47;93695.75;;;11.60;57.94
75166;BME280;63747;48.042;10.088;2024-03-02T15:57:49;93691.72;;;11.51;59.02
75166;BME280;63747;48.042;10.088;2024-03-02T16:00:50;93689.28;;;11.25;59.37
75166;BME280;63747;48.042;10.088;2024-03-02T16:03:51;93678.94;;;11.16;60.28